createdAt,value
2018-03-17T00:01:15.074Z,7.02
2018-03-17T00:04:18.271Z,6.97
2018-03-17T00:07:21.430Z,6.87
2018-03-17T00:10:24.705Z,6.84
2018-03-17T00:13:27.891Z,6.76
2018-03-17T00:16:31.075Z,6.68
2018-03-17T00:19:34.231Z,6.70
2018-03-17T00:22:37.458Z,6.57
2018-03-17T00:25:40.668Z,6.57
2018-03-17T00:28:43.843Z,6.56
2018-03-17T00:31:47.151Z,6.45
2018-03-17T00:34:50.334Z,6.47
2018-03-17T00:37:53.675Z,6.48
2018-03-17T00:40:56.951Z,6.47
2018-03-17T00:44:00.222Z,6.38
2018-03-17T00:47:03.551Z,6.46
2018-03-17T00:50:06.766Z,6.58
2018-03-17T00:53:10.016Z,6.61
2018-03-17T00:56:13.214Z,6.63
2018-03-17T00:59:16.450Z,6.57
2018-03-17T01:02:19.575Z,6.54
2018-03-17T01:05:22.751Z,6.60
2018-03-17T01:08:25.985Z,6.56
2018-03-17T01:11:29.302Z,6.60
2018-03-17T01:14:32.589Z,6.62
2018-03-17T01:17:35.727Z,6.67
2018-03-17T01:20:38.878Z,6.82
2018-03-17T01:23:42.042Z,6.94
2018-03-17T01:26:45.274Z,6.91
2018-03-17T01:29:48.466Z,7.03
2018-03-17T01:32:51.618Z,6.91
2018-03-17T01:35:54.754Z,6.77
2018-03-17T01:38:57.975Z,6.61
2018-03-17T01:42:01.137Z,6.54
2018-03-17T01:45:04.513Z,6.35
2018-03-17T01:48:07.785Z,6.28
2018-03-17T01:51:10.955Z,6.41
2018-03-17T01:54:23.029Z,6.37
2018-03-17T01:57:26.239Z,6.35
2018-03-17T02:00:29.427Z,6.20
2018-03-17T02:03:32.639Z,6.28
2018-03-17T02:06:35.837Z,6.25
2018-03-17T02:09:39.098Z,6.38
2018-03-17T02:12:42.283Z,6.53
2018-03-17T02:15:45.527Z,6.36
2018-03-17T02:18:48.708Z,6.24
2018-03-17T02:21:51.906Z,6.25
2018-03-17T02:24:55.109Z,6.31
2018-03-17T02:27:58.299Z,6.47
2018-03-17T02:31:01.491Z,6.60
2018-03-17T02:34:04.692Z,6.39
2018-03-17T02:37:07.879Z,6.32
2018-03-17T02:40:11.060Z,6.39
2018-03-17T02:43:14.308Z,6.34
2018-03-17T02:46:17.452Z,6.30
2018-03-17T02:49:20.698Z,6.08
2018-03-17T02:52:23.879Z,6.05
2018-03-17T02:55:27.059Z,5.96
2018-03-17T02:58:30.237Z,6.10
2018-03-17T03:01:33.487Z,5.99
2018-03-17T03:04:36.698Z,5.86
2018-03-17T03:07:39.847Z,5.82
2018-03-17T03:10:43.003Z,5.80
2018-03-17T03:13:46.246Z,5.74
2018-03-17T03:16:49.446Z,5.82
2018-03-17T03:19:52.614Z,5.90
2018-03-17T03:22:55.799Z,5.98
2018-03-17T03:25:58.988Z,6.06
2018-03-17T03:29:02.203Z,5.82
2018-03-17T03:32:05.354Z,5.71
2018-03-17T03:35:08.570Z,5.67
2018-03-17T03:38:11.679Z,5.66
2018-03-17T03:41:14.890Z,5.59
2018-03-17T03:44:18.074Z,5.51
2018-03-17T03:47:21.282Z,5.40
2018-03-17T03:50:24.466Z,5.46
2018-03-17T03:53:27.670Z,5.45
2018-03-17T03:56:30.854Z,5.43
2018-03-17T03:59:34.056Z,5.43
2018-03-17T04:02:37.206Z,5.41
2018-03-17T04:05:40.437Z,5.31
2018-03-17T04:08:43.578Z,5.27
2018-03-17T04:11:46.834Z,5.19
2018-03-17T04:14:49.985Z,5.24
2018-03-17T04:17:53.250Z,5.13
2018-03-17T04:20:56.410Z,5.19
2018-03-17T04:23:59.621Z,5.14
2018-03-17T04:27:02.747Z,5.07
2018-03-17T04:30:06.012Z,4.97
2018-03-17T04:33:09.213Z,4.95
2018-03-17T04:36:12.391Z,4.96
2018-03-17T04:39:15.598Z,4.92
2018-03-17T04:42:18.810Z,4.88
2018-03-17T04:45:21.970Z,4.83
2018-03-17T04:48:25.170Z,4.81
2018-03-17T04:51:28.373Z,4.73
2018-03-17T04:54:31.524Z,4.69
2018-03-17T04:57:34.671Z,4.63
2018-03-17T05:00:37.983Z,4.50
2018-03-17T05:03:41.137Z,4.50
2018-03-17T05:06:44.406Z,4.58
2018-03-17T05:09:47.682Z,4.45
2018-03-17T05:12:50.857Z,4.27
2018-03-17T05:15:54.054Z,4.30
2018-03-17T05:18:57.233Z,4.38
2018-03-17T05:22:00.389Z,4.49
2018-03-17T05:25:03.640Z,4.62
2018-03-17T05:28:06.847Z,4.50
2018-03-17T05:31:10.021Z,4.34
2018-03-17T05:34:13.227Z,4.35
2018-03-17T05:37:16.394Z,4.34
2018-03-17T05:40:19.546Z,4.38
2018-03-17T05:43:22.701Z,4.31
2018-03-17T05:46:25.900Z,4.29
2018-03-17T05:49:29.110Z,4.38
2018-03-17T05:52:35.628Z,4.40
2018-03-17T05:55:39.426Z,4.45
2018-03-17T05:58:42.646Z,4.34
2018-03-17T06:01:45.853Z,4.31
2018-03-17T06:04:49.044Z,4.33
2018-03-17T06:07:52.342Z,4.28
2018-03-17T06:10:55.479Z,4.10
2018-03-17T06:13:58.734Z,4.12
2018-03-17T06:17:01.927Z,4.08
2018-03-17T06:20:05.131Z,3.96
2018-03-17T06:23:08.371Z,3.85
2018-03-17T06:26:11.644Z,3.87
2018-03-17T06:29:14.877Z,3.90
2018-03-17T06:32:18.021Z,3.80
2018-03-17T06:35:21.170Z,3.83
2018-03-17T06:38:24.325Z,3.94
2018-03-17T06:41:27.490Z,3.97
2018-03-17T06:44:30.702Z,3.97
2018-03-17T06:47:33.907Z,4.02
2018-03-17T06:50:37.046Z,4.14
2018-03-17T06:53:40.426Z,4.01
2018-03-17T06:56:43.649Z,3.92
2018-03-17T06:59:46.861Z,3.85
2018-03-17T07:02:50.054Z,3.77
2018-03-17T07:05:53.463Z,3.80
2018-03-17T07:08:56.622Z,3.78
2018-03-17T07:11:59.893Z,3.63
2018-03-17T07:15:03.047Z,3.55
2018-03-17T07:18:06.264Z,3.59
2018-03-17T07:21:09.399Z,3.57
2018-03-17T07:24:12.625Z,3.61
2018-03-17T07:27:15.789Z,3.63
2018-03-17T07:30:19.067Z,3.56
2018-03-17T07:33:22.325Z,3.19
2018-03-17T07:36:25.522Z,3.24
2018-03-17T07:39:28.884Z,3.47
2018-03-17T07:42:32.027Z,3.59
2018-03-17T07:45:35.222Z,3.77
2018-03-17T07:48:38.409Z,3.83
2018-03-17T07:51:41.612Z,3.64
2018-03-17T07:54:44.790Z,3.61
2018-03-17T07:57:47.985Z,3.74
2018-03-17T08:00:53.494Z,3.81
2018-03-17T08:03:56.743Z,3.68
2018-03-17T08:06:59.952Z,3.67
2018-03-17T08:10:03.177Z,3.69
2018-03-17T08:13:06.327Z,3.68
2018-03-17T08:16:09.703Z,3.60
2018-03-17T08:19:12.970Z,3.60
2018-03-17T08:22:16.215Z,3.74
2018-03-17T08:25:19.370Z,3.63
2018-03-17T08:28:22.527Z,3.53
2018-03-17T08:31:25.693Z,3.53
2018-03-17T08:34:28.846Z,3.59
2018-03-17T08:37:31.984Z,3.68
2018-03-17T08:40:35.159Z,3.59
2018-03-17T08:43:38.370Z,3.59
2018-03-17T08:46:41.547Z,3.57
2018-03-17T08:49:44.809Z,3.63
2018-03-17T08:52:47.978Z,3.59
2018-03-17T08:55:51.146Z,3.49
2018-03-17T08:58:54.345Z,3.48
2018-03-17T09:01:57.532Z,3.55
2018-03-17T09:05:00.697Z,3.57
2018-03-17T09:08:03.841Z,3.68
2018-03-17T09:11:07.388Z,3.65
2018-03-17T09:14:10.691Z,3.74
2018-03-17T09:17:13.817Z,3.63
2018-03-17T09:20:17.005Z,3.64
2018-03-17T09:23:20.252Z,3.80
2018-03-17T09:26:23.494Z,3.81
2018-03-17T09:29:26.756Z,3.77
2018-03-17T09:32:29.841Z,3.62
2018-03-17T09:35:32.986Z,3.54
2018-03-17T09:38:36.173Z,3.50
2018-03-17T09:41:39.433Z,3.70
2018-03-17T09:44:42.673Z,3.53
2018-03-17T09:47:45.869Z,3.41
2018-03-17T09:50:49.074Z,3.60
2018-03-17T09:53:52.231Z,3.67
2018-03-17T09:56:55.451Z,3.68
2018-03-17T09:59:58.652Z,3.69
2018-03-17T10:03:01.847Z,3.74
2018-03-17T10:06:05.044Z,3.83
2018-03-17T10:09:08.230Z,3.83
2018-03-17T10:12:11.420Z,3.88
2018-03-17T10:15:14.617Z,3.92
2018-03-17T10:18:17.840Z,3.93
2018-03-17T10:21:21.019Z,3.98
2018-03-17T10:24:24.239Z,3.99
2018-03-17T10:27:27.406Z,3.73
2018-03-17T10:30:30.603Z,3.58
2018-03-17T10:33:33.787Z,3.56
2018-03-17T10:36:37.128Z,3.40
2018-03-17T10:39:40.502Z,3.46
2018-03-17T10:42:43.654Z,3.43
2018-03-17T10:45:47.033Z,3.32
2018-03-17T10:48:50.174Z,3.42
2018-03-17T10:51:53.384Z,3.46
2018-03-17T10:54:56.567Z,3.43
2018-03-17T10:57:59.811Z,3.51
2018-03-17T11:01:07.203Z,3.29
2018-03-17T11:04:10.628Z,3.38
2018-03-17T11:07:13.821Z,3.54
2018-03-17T11:10:16.958Z,3.63
2018-03-17T11:13:20.157Z,3.71
2018-03-17T11:16:23.326Z,3.68
2018-03-17T11:19:26.521Z,3.50
2018-03-17T11:22:29.746Z,3.53
2018-03-17T11:25:32.916Z,3.62
2018-03-17T11:28:36.106Z,3.51
2018-03-17T11:31:39.329Z,3.53
2018-03-17T11:34:42.610Z,3.45
2018-03-17T11:37:45.821Z,3.54
2018-03-17T11:40:48.999Z,3.51
2018-03-17T11:43:52.211Z,3.51
2018-03-17T11:46:55.370Z,3.44
2018-03-17T11:49:58.625Z,3.33
2018-03-17T11:53:01.932Z,3.31
2018-03-17T11:56:05.094Z,3.43
2018-03-17T11:59:08.264Z,3.41
2018-03-17T12:02:11.419Z,3.33
2018-03-17T12:05:14.655Z,3.36
2018-03-17T12:08:17.859Z,3.46
2018-03-17T12:11:21.062Z,3.47
2018-03-17T12:14:24.230Z,3.48
2018-03-17T12:17:27.448Z,3.59
2018-03-17T12:20:30.644Z,3.59
2018-03-17T12:23:33.843Z,3.49
2018-03-17T12:26:37.090Z,3.54
2018-03-17T12:29:40.643Z,3.59
2018-03-17T12:32:43.820Z,3.58
2018-03-17T12:35:46.995Z,3.68
2018-03-17T12:38:50.128Z,3.60
2018-03-17T12:41:53.330Z,3.44
2018-03-17T12:44:56.626Z,3.45
2018-03-17T12:47:59.822Z,3.55
2018-03-17T12:51:02.996Z,3.60
2018-03-17T12:54:06.315Z,3.64
2018-03-17T12:57:09.492Z,3.61
2018-03-17T13:00:12.933Z,3.53
2018-03-17T13:03:16.086Z,3.40
2018-03-17T13:06:19.212Z,3.28
2018-03-17T13:09:22.365Z,3.37
2018-03-17T13:12:25.587Z,3.29
2018-03-17T13:15:28.990Z,3.29
2018-03-17T13:18:32.171Z,3.19
2018-03-17T13:21:35.310Z,3.10
2018-03-17T13:24:38.480Z,3.08
2018-03-17T13:27:53.059Z,3.09
2018-03-17T13:30:56.227Z,3.13
2018-03-17T13:33:59.409Z,3.05
2018-03-17T13:37:17.816Z,2.94
2018-03-17T13:40:31.048Z,2.97
2018-03-17T13:43:34.389Z,2.84
2018-03-17T13:46:37.591Z,2.87
2018-03-17T13:49:40.807Z,2.96
2018-03-17T13:52:43.971Z,2.88
2018-03-17T13:55:47.208Z,2.76
2018-03-17T13:58:50.513Z,2.72
2018-03-17T14:01:53.659Z,2.75
2018-03-17T14:04:56.848Z,2.65
2018-03-17T14:08:00.086Z,2.63
2018-03-17T14:11:03.289Z,2.62
2018-03-17T14:14:06.446Z,2.68
2018-03-17T14:17:09.630Z,2.72
2018-03-17T14:20:12.957Z,2.78
2018-03-17T14:23:16.133Z,2.87
2018-03-17T14:26:19.442Z,2.81
2018-03-17T14:29:22.617Z,2.63
2018-03-17T14:32:25.734Z,2.52
2018-03-17T14:35:28.922Z,2.51
2018-03-17T14:38:32.103Z,2.56
2018-03-17T14:41:35.244Z,2.43
2018-03-17T14:44:38.397Z,2.44
2018-03-17T14:47:41.586Z,2.48
2018-03-17T14:50:44.783Z,2.41
2018-03-17T14:53:48.052Z,2.56
2018-03-17T14:56:51.211Z,2.63
2018-03-17T14:59:54.637Z,2.55
2018-03-17T15:02:57.818Z,2.56
2018-03-17T15:06:01.440Z,2.61
2018-03-17T15:09:05.214Z,2.50
2018-03-17T15:12:08.361Z,2.66
2018-03-17T15:15:11.626Z,2.60
2018-03-17T15:18:14.877Z,2.46
2018-03-17T15:21:18.106Z,2.43
2018-03-17T15:24:21.275Z,2.23
2018-03-17T15:27:24.466Z,2.32
2018-03-17T15:30:27.657Z,2.30
2018-03-17T15:33:30.850Z,2.17
2018-03-17T15:36:34.039Z,2.16
2018-03-17T15:39:37.248Z,2.16
2018-03-17T15:42:40.433Z,2.13
2018-03-17T15:45:43.643Z,2.15
2018-03-17T15:48:46.823Z,2.04
2018-03-17T15:51:50.040Z,1.92
2018-03-17T15:54:53.211Z,2.00
2018-03-17T15:57:56.580Z,1.93
2018-03-17T16:00:59.718Z,1.93
2018-03-17T16:04:02.918Z,1.99
2018-03-17T16:07:06.061Z,1.87
2018-03-17T16:10:09.303Z,1.89
2018-03-17T16:13:12.894Z,1.95
2018-03-17T16:16:16.136Z,2.02
2018-03-17T16:19:19.661Z,2.01
2018-03-17T16:22:23.073Z,2.03
2018-03-17T16:25:26.323Z,1.90
2018-03-17T16:28:29.562Z,1.89
2018-03-17T16:31:32.788Z,1.84
2018-03-17T16:34:36.082Z,1.81
2018-03-17T16:37:39.426Z,1.82
2018-03-17T16:40:42.704Z,1.88
2018-03-17T16:43:45.988Z,1.80
2018-03-17T16:46:49.274Z,1.69
2018-03-17T16:49:52.612Z,1.66
2018-03-17T16:52:55.871Z,1.62
2018-03-17T16:55:59.111Z,1.64
2018-03-17T16:59:02.372Z,1.63
2018-03-17T17:02:05.668Z,1.66
2018-03-17T17:05:08.893Z,1.60
2018-03-17T17:08:12.074Z,1.51
2018-03-17T17:11:15.734Z,1.51
2018-03-17T17:14:19.124Z,1.62
2018-03-17T17:17:22.312Z,1.69
2018-03-17T17:20:25.450Z,1.65
2018-03-17T17:23:28.761Z,1.62
2018-03-17T17:26:32.081Z,1.47
2018-03-17T17:29:35.230Z,1.49
2018-03-17T17:32:38.454Z,1.48
2018-03-17T17:35:42.286Z,1.43
2018-03-17T17:38:45.438Z,1.42
2018-03-17T17:41:48.586Z,1.50
2018-03-17T17:44:51.744Z,1.42
2018-03-17T17:47:55.184Z,1.44
2018-03-17T17:50:58.413Z,1.43
2018-03-17T17:54:01.567Z,1.59
2018-03-17T17:57:04.966Z,1.56
2018-03-17T18:00:08.101Z,1.59
2018-03-17T18:03:11.890Z,1.50
2018-03-17T18:06:15.889Z,1.49
2018-03-17T18:09:19.117Z,1.51
2018-03-17T18:12:22.346Z,1.50
2018-03-17T18:15:25.535Z,1.49
2018-03-17T18:18:28.856Z,1.45
2018-03-17T18:21:32.035Z,1.48
2018-03-17T18:24:35.265Z,1.51
2018-03-17T18:27:38.405Z,1.55
2018-03-17T18:30:41.720Z,1.46
2018-03-17T18:33:51.057Z,1.14
2018-03-17T18:36:54.191Z,1.23
2018-03-17T18:39:57.581Z,1.32
2018-03-17T18:43:00.751Z,1.25
2018-03-17T18:46:03.967Z,1.05
2018-03-17T18:49:07.130Z,1.12
2018-03-17T18:52:10.311Z,0.95
2018-03-17T18:55:13.664Z,0.98
2018-03-17T18:58:16.970Z,0.89
2018-03-17T19:01:20.119Z,0.94
2018-03-17T19:04:23.313Z,1.01
2018-03-17T19:07:26.474Z,1.08
2018-03-17T19:10:29.699Z,1.14
2018-03-17T19:13:32.920Z,1.06
2018-03-17T19:16:36.203Z,1.00
2018-03-17T19:19:39.349Z,0.99
2018-03-17T19:22:42.597Z,1.00
2018-03-17T19:25:45.773Z,0.93
2018-03-17T19:28:48.957Z,0.83
2018-03-17T19:31:52.196Z,0.78
2018-03-17T19:34:55.451Z,0.79
2018-03-17T19:37:58.860Z,0.78
2018-03-17T19:41:02.063Z,0.70
2018-03-17T19:44:05.369Z,0.70
2018-03-17T19:47:08.531Z,0.63
2018-03-17T19:50:11.687Z,0.62
2018-03-17T19:53:14.839Z,0.68
2018-03-17T19:56:17.992Z,0.71
2018-03-17T19:59:21.178Z,0.63
2018-03-17T20:02:24.303Z,0.56
2018-03-17T20:05:27.504Z,0.65
2018-03-17T20:08:30.786Z,0.65
2018-03-17T20:11:34.071Z,0.65
2018-03-17T20:14:37.197Z,0.65
2018-03-17T20:17:40.395Z,0.67
2018-03-17T20:20:43.592Z,0.72
2018-03-17T20:23:46.777Z,0.78
2018-03-17T20:26:50.058Z,0.61
2018-03-17T20:29:53.284Z,0.59
2018-03-17T20:32:56.483Z,0.53
2018-03-17T20:35:59.669Z,0.52
2018-03-17T20:39:02.870Z,0.50
2018-03-17T20:42:06.028Z,0.59
2018-03-17T20:45:09.246Z,0.54
2018-03-17T20:48:12.456Z,0.46
2018-03-17T20:51:15.600Z,0.30
2018-03-17T20:54:18.752Z,0.24
2018-03-17T20:57:22.022Z,0.16
2018-03-17T21:00:25.227Z,0.17
2018-03-17T21:03:28.463Z,0.16
2018-03-17T21:06:31.763Z,0.04
2018-03-17T21:09:34.948Z,0.05
2018-03-17T21:12:38.098Z,0.10
2018-03-17T21:15:41.230Z,0.10
2018-03-17T21:18:44.386Z,0.10
2018-03-17T21:21:47.759Z,0.19
2018-03-17T21:24:50.917Z,0.21
2018-03-17T21:27:54.351Z,0.13
2018-03-17T21:30:57.484Z,-0.06
2018-03-17T21:34:00.623Z,0.08
2018-03-17T21:37:03.774Z,0.06
2018-03-17T21:40:06.987Z,-0.12
2018-03-17T21:43:10.186Z,-0.14
2018-03-17T21:46:13.361Z,-0.12
2018-03-17T21:49:16.546Z,-0.07
2018-03-17T21:52:20.678Z,-0.09
2018-03-17T21:55:23.871Z,-0.18
2018-03-17T21:58:27.067Z,-0.52
2018-03-17T22:01:30.206Z,-0.72
2018-03-17T22:04:33.362Z,-0.94
2018-03-17T22:07:36.538Z,-0.81
2018-03-17T22:10:39.770Z,-0.74
2018-03-17T22:13:42.941Z,-0.84
2018-03-17T22:16:46.126Z,-0.87
2018-03-17T22:19:49.323Z,-0.88
2018-03-17T22:22:52.521Z,-0.90
2018-03-17T22:25:55.657Z,-0.90
2018-03-17T22:28:58.831Z,-0.83
2018-03-17T22:32:01.993Z,-0.88
2018-03-17T22:35:05.193Z,-1.03
2018-03-17T22:38:08.357Z,-0.97
2018-03-17T22:41:11.592Z,-0.89
2018-03-17T22:44:14.790Z,-0.95
2018-03-17T22:47:18.017Z,-1.17
2018-03-17T22:50:22.519Z,-1.18
2018-03-17T22:53:25.661Z,-1.09
2018-03-17T22:56:28.903Z,-1.19
2018-03-17T22:59:32.082Z,-1.18
2018-03-17T23:02:35.300Z,-1.02
2018-03-17T23:05:38.480Z,-1.10
2018-03-17T23:08:41.637Z,-1.06
2018-03-17T23:11:44.979Z,-0.96
2018-03-17T23:14:48.169Z,-1.10
2018-03-17T23:17:52.212Z,-1.08
2018-03-17T23:20:55.412Z,-1.06
2018-03-17T23:23:58.718Z,-1.07
2018-03-17T23:27:01.877Z,-1.04
2018-03-17T23:30:05.178Z,-1.08
2018-03-17T23:33:08.358Z,-1.05
2018-03-17T23:36:11.661Z,-1.15
2018-03-17T23:39:14.830Z,-1.18
2018-03-17T23:42:17.970Z,-1.31
2018-03-17T23:45:21.168Z,-1.35
2018-03-17T23:48:24.326Z,-1.40
2018-03-17T23:51:27.537Z,-1.23
2018-03-17T23:54:30.761Z,-1.16
2018-03-17T23:57:34.021Z,-1.21
